createdAt,value
2018-12-15T00:02:11.495Z,69.24
2018-12-15T00:04:44.131Z,68.77
2018-12-15T00:07:15.935Z,67.35
2018-12-15T00:09:46.019Z,68.05
2018-12-15T00:12:15.415Z,69.13
2018-12-15T00:14:45.525Z,68.90
2018-12-15T00:17:15.154Z,69.55
2018-12-15T00:19:44.626Z,68.75
2018-12-15T00:22:14.888Z,68.94
2018-12-15T00:24:44.320Z,68.55
2018-12-15T00:27:14.444Z,68.56
2018-12-15T00:29:43.768Z,69.26
2018-12-15T00:32:13.162Z,69.01
2018-12-15T00:34:43.526Z,69.77
2018-12-15T00:37:13.248Z,68.84
2018-12-15T00:39:42.631Z,69.72
2018-12-15T00:42:12.480Z,69.92
2018-12-15T00:44:42.754Z,69.24
2018-12-15T00:47:13.937Z,69.73
2018-12-15T00:49:44.129Z,69.06
2018-12-15T00:52:14.650Z,68.82
2018-12-15T00:54:44.231Z,68.72
2018-12-15T00:57:13.780Z,69.75
2018-12-15T00:59:42.971Z,68.80
2018-12-15T01:02:12.560Z,69.13
2018-12-15T01:04:42.410Z,69.33
2018-12-15T01:07:11.791Z,69.62
2018-12-15T01:09:41.821Z,70.31
2018-12-15T01:12:11.686Z,69.84
2018-12-15T01:14:41.201Z,69.71
2018-12-15T01:17:11.409Z,69.04
2018-12-15T01:19:41.602Z,69.07
2018-12-15T01:22:11.090Z,70.08
2018-12-15T01:24:40.671Z,68.67
2018-12-15T01:27:10.360Z,68.05
2018-12-15T01:29:39.786Z,68.10
2018-12-15T01:32:09.825Z,68.17
2018-12-15T01:34:39.953Z,68.92
2018-12-15T01:37:09.288Z,68.43
2018-12-15T01:39:38.695Z,68.67
2018-12-15T01:42:08.490Z,68.30
2018-12-15T01:44:38.711Z,69.05
2018-12-15T01:47:09.907Z,68.05
2018-12-15T01:49:39.297Z,68.27
2018-12-15T01:52:09.065Z,67.71
2018-12-15T01:54:38.501Z,68.04
2018-12-15T01:57:07.902Z,67.54
2018-12-15T01:59:37.151Z,67.76
2018-12-15T02:02:07.491Z,68.30
2018-12-15T02:04:37.366Z,68.79
2018-12-15T02:07:06.691Z,68.59
2018-12-15T02:09:37.087Z,69.27
2018-12-15T02:12:06.668Z,69.84
2018-12-15T02:14:36.258Z,69.07
2018-12-15T02:17:05.602Z,69.78
2018-12-15T02:19:35.425Z,69.56
2018-12-15T02:22:04.885Z,69.15
2018-12-15T02:24:34.222Z,70.47
2018-12-15T02:27:04.192Z,70.31
2018-12-15T02:29:35.105Z,70.54
2018-12-15T02:32:04.677Z,69.56
2018-12-15T02:34:34.862Z,69.47
2018-12-15T02:37:04.278Z,69.85
2018-12-15T02:39:34.613Z,68.49
2018-12-15T02:42:04.440Z,69.67
2018-12-15T02:44:33.731Z,69.68
2018-12-15T02:47:03.993Z,69.59
2018-12-15T02:49:33.493Z,70.22
2018-12-15T02:52:03.280Z,69.60
2018-12-15T02:54:33.443Z,70.10
2018-12-15T02:57:03.126Z,70.08
2018-12-15T02:59:32.522Z,69.18
2018-12-15T03:02:02.228Z,68.47
2018-12-15T03:04:32.482Z,67.98
2018-12-15T03:07:02.110Z,68.05
2018-12-15T03:09:31.758Z,68.53
2018-12-15T03:12:01.668Z,68.10
2018-12-15T03:14:31.187Z,68.20
2018-12-15T03:17:08.193Z,68.41
2018-12-15T03:19:37.486Z,67.96
2018-12-15T03:22:07.817Z,67.89
2018-12-15T03:24:37.767Z,68.01
2018-12-15T03:27:08.365Z,68.26
2018-12-15T03:29:37.930Z,68.61
2018-12-15T03:32:07.526Z,68.54
2018-12-15T03:34:36.886Z,68.65
2018-12-15T03:37:06.945Z,68.61
2018-12-15T03:39:37.135Z,67.84
2018-12-15T03:42:06.409Z,68.70
2018-12-15T03:44:35.823Z,69.54
2018-12-15T03:47:05.761Z,68.82
2018-12-15T03:49:34.961Z,67.31
2018-12-15T03:52:04.326Z,69.03
2018-12-15T03:54:33.602Z,68.78
2018-12-15T03:57:03.672Z,68.69
2018-12-15T03:59:34.083Z,68.59
2018-12-15T04:02:03.646Z,68.88
2018-12-15T04:04:33.351Z,68.14
2018-12-15T04:07:03.463Z,68.34
2018-12-15T04:09:32.839Z,68.64
2018-12-15T04:12:02.193Z,68.57
2018-12-15T04:14:31.703Z,69.80
2018-12-15T04:17:01.220Z,69.72
2018-12-15T04:19:30.668Z,69.93
2018-12-15T04:22:19.264Z,69.68
2018-12-15T04:24:48.793Z,70.22
2018-12-15T04:27:18.546Z,70.55
2018-12-15T04:29:51.107Z,70.33
2018-12-15T04:32:20.952Z,69.61
2018-12-15T04:34:51.076Z,70.17
2018-12-15T04:37:21.388Z,70.69
2018-12-15T04:39:50.779Z,70.88
2018-12-15T04:42:20.739Z,70.51
2018-12-15T04:44:50.662Z,70.07
2018-12-15T04:47:20.198Z,70.60
2018-12-15T04:49:49.607Z,71.02
2018-12-15T04:52:19.783Z,71.65
2018-12-15T04:54:49.179Z,73.38
2018-12-15T04:57:18.935Z,72.11
2018-12-15T04:59:48.266Z,71.23
2018-12-15T05:02:17.702Z,71.12
2018-12-15T05:04:47.361Z,70.86
2018-12-15T05:07:17.063Z,69.98
2018-12-15T05:09:47.171Z,70.65
2018-12-15T05:12:16.406Z,69.95
2018-12-15T05:14:45.732Z,70.23
2018-12-15T05:17:15.438Z,69.82
2018-12-15T05:19:45.003Z,70.54
2018-12-15T05:22:14.888Z,71.10
2018-12-15T05:24:44.987Z,71.11
2018-12-15T05:27:15.173Z,71.41
2018-12-15T05:29:44.908Z,70.16
2018-12-15T05:32:14.950Z,70.78
2018-12-15T05:34:45.172Z,70.51
2018-12-15T05:37:15.084Z,70.42
2018-12-15T05:39:44.690Z,70.19
2018-12-15T05:42:13.899Z,69.84
2018-12-15T05:44:43.333Z,69.21
2018-12-15T05:47:12.678Z,70.05
2018-12-15T05:49:42.068Z,69.59
2018-12-15T05:52:11.738Z,69.84
2018-12-15T05:54:41.934Z,69.87
2018-12-15T05:57:11.320Z,69.97
2018-12-15T05:59:41.035Z,69.95
2018-12-15T06:02:13.345Z,70.77
2018-12-15T06:04:42.848Z,70.81
2018-12-15T06:07:12.122Z,70.72
2018-12-15T06:09:41.711Z,70.64
2018-12-15T06:12:11.338Z,70.65
2018-12-15T06:14:41.541Z,70.25
2018-12-15T06:17:10.849Z,69.88
2018-12-15T06:19:40.120Z,70.02
2018-12-15T06:22:10.272Z,70.39
2018-12-15T06:24:40.494Z,70.12
2018-12-15T06:27:10.595Z,69.83
2018-12-15T06:30:43.475Z,70.10
2018-12-15T06:33:13.385Z,70.02
2018-12-15T06:35:42.792Z,70.99
2018-12-15T06:38:12.602Z,71.03
2018-12-15T06:40:42.038Z,70.56
2018-12-15T06:43:11.415Z,71.04
2018-12-15T06:45:41.440Z,70.97
2018-12-15T06:48:11.659Z,70.99
2018-12-15T06:50:41.080Z,70.54
2018-12-15T06:53:10.731Z,70.12
2018-12-15T06:55:40.237Z,70.29
2018-12-15T06:58:10.150Z,69.88
2018-12-15T07:00:39.378Z,70.39
2018-12-15T07:03:08.955Z,70.46
2018-12-15T07:05:38.293Z,70.03
2018-12-15T07:08:07.538Z,70.03
2018-12-15T07:10:37.357Z,70.60
2018-12-15T07:13:07.723Z,69.95
2018-12-15T07:15:37.046Z,70.83
2018-12-15T07:18:06.475Z,71.51
2018-12-15T07:20:36.384Z,71.52
2018-12-15T07:23:06.719Z,72.11
2018-12-15T07:25:36.463Z,71.78
2018-12-15T07:28:06.072Z,71.39
2018-12-15T07:30:36.199Z,72.15
2018-12-15T07:33:06.664Z,72.05
2018-12-15T07:35:36.323Z,71.18
2018-12-15T07:38:05.987Z,71.02
2018-12-15T07:40:35.343Z,70.62
2018-12-15T07:43:04.857Z,70.31
2018-12-15T07:45:34.697Z,69.23
2018-12-15T07:48:04.479Z,68.92
2018-12-15T07:50:34.052Z,68.07
2018-12-15T07:53:04.124Z,68.86
2018-12-15T07:55:33.512Z,68.38
2018-12-15T07:58:03.519Z,67.81
2018-12-15T08:00:33.688Z,69.12
2018-12-15T08:03:03.785Z,68.31
2018-12-15T08:05:34.302Z,68.57
2018-12-15T08:08:03.957Z,68.67
2018-12-15T08:10:39.379Z,68.49
2018-12-15T08:13:14.800Z,67.74
2018-12-15T08:15:44.294Z,68.42
2018-12-15T08:18:13.788Z,68.05
2018-12-15T08:20:44.320Z,68.62
2018-12-15T08:23:15.319Z,68.83
2018-12-15T08:25:45.703Z,68.94
2018-12-15T08:28:15.715Z,68.06
2018-12-15T08:30:45.033Z,68.03
2018-12-15T08:33:15.261Z,67.69
2018-12-15T08:35:44.855Z,67.95
2018-12-15T08:38:15.517Z,67.16
2018-12-15T08:40:44.734Z,68.35
2018-12-15T08:43:15.094Z,67.23
2018-12-15T08:45:45.791Z,67.62
2018-12-15T08:48:16.280Z,67.60
2018-12-15T08:50:46.481Z,67.60
2018-12-15T08:53:15.873Z,67.95
2018-12-15T08:55:45.255Z,67.05
2018-12-15T08:58:15.233Z,68.08
2018-12-15T09:00:45.384Z,67.85
2018-12-15T09:03:16.399Z,67.87
2018-12-15T09:05:46.785Z,67.68
2018-12-15T09:08:17.862Z,66.31
2018-12-15T09:10:47.938Z,67.45
2018-12-15T09:13:17.383Z,66.69
2018-12-15T09:15:47.558Z,66.37
2018-12-15T09:18:17.644Z,67.13
2018-12-15T09:20:47.618Z,67.92
2018-12-15T09:23:17.299Z,67.30
2018-12-15T09:25:46.901Z,67.77
2018-12-15T09:28:16.574Z,67.50
2018-12-15T09:30:46.822Z,67.68
2018-12-15T09:33:17.068Z,68.23
2018-12-15T09:35:47.182Z,67.19
2018-12-15T09:38:16.497Z,66.72
2018-12-15T09:40:46.494Z,67.61
2018-12-15T09:43:16.771Z,66.90
2018-12-15T09:45:46.161Z,66.78
2018-12-15T09:48:16.219Z,67.00
2018-12-15T09:50:46.291Z,67.61
2018-12-15T09:53:15.737Z,68.19
2018-12-15T09:55:45.869Z,67.97
2018-12-15T09:58:16.183Z,67.34
2018-12-15T10:00:46.292Z,66.70
2018-12-15T10:03:16.979Z,67.17
2018-12-15T10:05:46.615Z,66.20
2018-12-15T10:08:16.781Z,66.45
2018-12-15T10:10:48.232Z,66.13
2018-12-15T10:13:17.730Z,67.01
2018-12-15T10:15:47.317Z,66.70
2018-12-15T10:18:17.118Z,66.67
2018-12-15T10:20:46.669Z,66.32
2018-12-15T10:23:17.004Z,66.72
2018-12-15T10:25:47.381Z,66.26
2018-12-15T10:28:16.983Z,66.87
2018-12-15T10:30:51.780Z,65.68
2018-12-15T10:33:22.658Z,65.74
2018-12-15T10:35:52.037Z,64.57
2018-12-15T10:38:21.638Z,65.42
2018-12-15T10:40:51.302Z,65.03
2018-12-15T10:43:20.682Z,64.97
2018-12-15T10:45:50.403Z,65.58
2018-12-15T10:48:20.019Z,65.65
2018-12-15T10:50:50.227Z,64.69
2018-12-15T10:53:20.442Z,64.77
2018-12-15T10:55:49.972Z,65.72
2018-12-15T10:58:19.763Z,65.56
2018-12-15T11:00:54.453Z,64.71
2018-12-15T11:03:23.963Z,65.33
2018-12-15T11:05:57.802Z,64.64
2018-12-15T11:08:27.413Z,65.84
2018-12-15T11:10:57.715Z,65.24
2018-12-15T11:13:28.000Z,64.07
2018-12-15T11:15:57.938Z,63.74
2018-12-15T11:18:27.358Z,64.04
2018-12-15T11:20:56.918Z,64.12
2018-12-15T11:23:26.549Z,63.89
2018-12-15T11:25:57.138Z,64.46
2018-12-15T11:28:27.855Z,64.17
2018-12-15T11:30:58.169Z,64.83
2018-12-15T11:33:28.383Z,64.50
2018-12-15T11:35:57.734Z,64.09
2018-12-15T11:38:27.801Z,64.56
2018-12-15T11:40:57.593Z,65.41
2018-12-15T11:43:28.470Z,64.62
2018-12-15T11:45:58.438Z,64.22
2018-12-15T11:48:27.951Z,63.97
2018-12-15T11:50:57.390Z,64.14
2018-12-15T11:53:27.075Z,63.63
2018-12-15T11:55:56.896Z,64.00
2018-12-15T11:58:27.660Z,62.84
2018-12-15T12:00:58.525Z,64.07
2018-12-15T12:03:28.742Z,63.53
2018-12-15T12:05:58.217Z,63.44
2018-12-15T12:08:27.984Z,63.63
2018-12-15T12:10:58.325Z,62.70
2018-12-15T12:13:27.858Z,64.09
2018-12-15T12:15:57.801Z,63.03
2018-12-15T12:18:27.482Z,62.95
2018-12-15T12:20:57.138Z,63.82
2018-12-15T12:23:28.519Z,62.92
2018-12-15T12:26:00.809Z,63.27
2018-12-15T12:28:30.640Z,63.41
2018-12-15T12:31:00.255Z,63.54
2018-12-15T12:33:30.310Z,64.06
2018-12-15T12:36:00.493Z,62.76
2018-12-15T12:38:30.178Z,62.62
2018-12-15T12:40:59.869Z,63.58
2018-12-15T12:43:29.128Z,63.61
2018-12-15T12:45:59.505Z,64.12
2018-12-15T12:48:29.511Z,63.18
2018-12-15T12:50:59.736Z,64.28
2018-12-15T12:53:29.921Z,64.39
2018-12-15T12:55:59.348Z,64.53
2018-12-15T12:58:29.210Z,63.51
2018-12-15T13:00:59.506Z,63.70
2018-12-15T13:03:29.659Z,63.72
2018-12-15T13:05:59.313Z,64.36
2018-12-15T13:08:29.135Z,65.54
2018-12-15T13:10:58.951Z,66.43
2018-12-15T13:13:29.565Z,65.11
2018-12-15T13:15:59.547Z,64.95
2018-12-15T13:18:28.993Z,65.22
2018-12-15T13:20:58.564Z,65.48
2018-12-15T13:23:28.233Z,65.19
2018-12-15T13:25:58.535Z,64.86
2018-12-15T13:28:27.955Z,64.38
2018-12-15T13:30:57.825Z,64.44
2018-12-15T13:33:35.123Z,65.56
2018-12-15T13:36:17.430Z,65.13
2018-12-15T13:38:46.966Z,65.32
2018-12-15T13:41:16.774Z,66.08
2018-12-15T13:43:46.514Z,65.53
2018-12-15T13:46:16.060Z,66.54
2018-12-15T13:48:45.685Z,66.05
2018-12-15T13:51:15.131Z,65.72
2018-12-15T13:53:45.355Z,67.03
2018-12-15T13:56:16.439Z,66.95
2018-12-15T13:58:45.784Z,66.25
2018-12-15T14:01:16.030Z,66.52
2018-12-15T14:03:46.017Z,66.54
2018-12-15T14:06:16.260Z,66.58
2018-12-15T14:08:46.605Z,66.58
2018-12-15T14:11:16.175Z,66.51
2018-12-15T14:13:46.031Z,67.67
2018-12-15T14:16:15.555Z,66.60
2018-12-15T14:18:45.363Z,66.55
2018-12-15T14:21:14.663Z,67.06
2018-12-15T14:23:45.839Z,67.23
2018-12-15T14:26:15.474Z,66.89
2018-12-15T14:28:45.154Z,66.80
2018-12-15T14:31:15.425Z,67.17
2018-12-15T14:33:45.536Z,67.29
2018-12-15T14:36:15.675Z,67.76
2018-12-15T14:38:45.140Z,67.10
2018-12-15T14:41:16.078Z,66.65
2018-12-15T14:43:46.913Z,67.24
2018-12-15T14:46:16.593Z,67.68
2018-12-15T14:48:46.725Z,68.17
2018-12-15T14:51:16.972Z,68.16
2018-12-15T14:53:47.164Z,67.90
2018-12-15T14:56:17.358Z,66.78
2018-12-15T14:58:46.875Z,67.46
2018-12-15T15:01:17.022Z,67.32
2018-12-15T15:03:46.480Z,67.74
2018-12-15T15:06:16.135Z,68.08
2018-12-15T15:08:45.705Z,68.26
2018-12-15T15:11:15.454Z,67.76
2018-12-15T15:13:45.598Z,68.41
2018-12-15T15:16:15.984Z,68.23
2018-12-15T15:18:45.773Z,68.89
2018-12-15T15:21:15.467Z,68.83
2018-12-15T15:23:45.320Z,68.70
2018-12-15T15:26:14.721Z,69.30
2018-12-15T15:28:44.234Z,68.91
2018-12-15T15:31:14.210Z,68.61
2018-12-15T15:33:43.778Z,68.21
2018-12-15T15:36:14.788Z,69.33
2018-12-15T15:39:47.501Z,68.80
2018-12-15T15:42:17.583Z,68.32
2018-12-15T15:44:47.582Z,68.38
2018-12-15T15:47:17.033Z,69.04
2018-12-15T15:49:46.653Z,69.24
2018-12-15T15:52:16.494Z,68.33
2018-12-15T15:54:46.594Z,69.30
2018-12-15T15:57:16.654Z,68.01
2018-12-15T15:59:46.095Z,68.81
2018-12-15T16:02:15.725Z,68.46
2018-12-15T16:04:45.251Z,68.65
2018-12-15T16:07:15.521Z,68.50
2018-12-15T16:09:45.686Z,67.63
2018-12-15T16:12:15.761Z,68.73
2018-12-15T16:14:45.284Z,68.66
2018-12-15T16:17:14.941Z,67.01
2018-12-15T16:19:46.409Z,67.84
2018-12-15T16:22:16.923Z,67.68
2018-12-15T16:24:46.811Z,68.21
2018-12-15T16:27:17.082Z,68.55
2018-12-15T16:29:47.398Z,68.51
2018-12-15T16:32:17.120Z,68.59
2018-12-15T16:34:46.785Z,69.39
2018-12-15T16:37:17.011Z,68.55
2018-12-15T16:39:46.468Z,67.96
2018-12-15T16:42:16.428Z,68.75
2018-12-15T16:44:46.349Z,68.45
2018-12-15T16:47:15.915Z,68.79
2018-12-15T16:49:45.748Z,68.58
2018-12-15T16:52:15.610Z,68.48
2018-12-15T16:54:45.536Z,68.33
2018-12-15T16:57:15.098Z,68.14
2018-12-15T16:59:45.726Z,68.44
2018-12-15T17:02:15.090Z,68.48
2018-12-15T17:04:44.711Z,68.84
2018-12-15T17:07:14.372Z,68.84
2018-12-15T17:09:43.707Z,68.11
2018-12-15T17:12:13.448Z,68.22
2018-12-15T17:14:42.973Z,67.94
2018-12-15T17:17:13.228Z,68.57
2018-12-15T17:19:43.021Z,68.62
2018-12-15T17:22:12.608Z,68.59
2018-12-15T17:24:42.321Z,69.13
2018-12-15T17:27:18.916Z,69.01
2018-12-15T17:29:48.379Z,68.74
2018-12-15T17:32:18.270Z,68.56
2018-12-15T17:34:48.587Z,69.29
2018-12-15T17:37:19.011Z,68.82
2018-12-15T17:39:48.730Z,69.33
2018-12-15T17:42:18.422Z,69.05
2018-12-15T17:44:48.521Z,68.91
2018-12-15T17:47:18.163Z,68.96
2018-12-15T17:49:47.794Z,68.77
2018-12-15T17:52:18.009Z,69.33
2018-12-15T17:54:48.285Z,69.03
2018-12-15T17:57:18.241Z,68.79
2018-12-15T17:59:49.065Z,68.81
2018-12-15T18:02:19.770Z,68.59
2018-12-15T18:04:49.016Z,68.93
2018-12-15T18:07:18.375Z,68.67
2018-12-15T18:09:48.235Z,68.98
2018-12-15T18:12:17.722Z,69.65
2018-12-15T18:14:47.795Z,70.39
2018-12-15T18:17:18.051Z,70.72
2018-12-15T18:19:47.698Z,70.62
2018-12-15T18:22:17.346Z,70.45
2018-12-15T18:24:46.879Z,71.46
2018-12-15T18:27:16.825Z,71.95
2018-12-15T18:29:46.276Z,71.40
2018-12-15T18:32:16.276Z,71.70
2018-12-15T18:34:46.455Z,71.49
2018-12-15T18:37:16.077Z,72.31
2018-12-15T18:39:45.744Z,72.75
2018-12-15T18:42:15.130Z,72.53
2018-12-15T18:44:44.676Z,72.42
2018-12-15T18:47:14.535Z,73.18
2018-12-15T18:49:44.805Z,72.54
2018-12-15T18:52:14.877Z,73.04
2018-12-15T18:54:44.493Z,72.79
2018-12-15T18:57:14.321Z,72.91
2018-12-15T18:59:44.091Z,73.73
2018-12-15T19:02:13.729Z,73.35
2018-12-15T19:04:43.546Z,73.72
2018-12-15T19:07:13.202Z,73.93
2018-12-15T19:09:42.955Z,74.50
2018-12-15T19:12:13.681Z,74.88
2018-12-15T19:14:43.743Z,75.42
2018-12-15T19:17:13.466Z,75.95
2018-12-15T19:19:43.317Z,75.99
2018-12-15T19:22:13.376Z,76.17
2018-12-15T19:24:42.795Z,75.98
2018-12-15T19:27:12.527Z,77.09
2018-12-15T19:29:42.292Z,77.22
2018-12-15T19:32:12.190Z,77.83
2018-12-15T19:34:41.960Z,77.72
2018-12-15T19:37:11.618Z,78.34
2018-12-15T19:39:42.043Z,78.52
2018-12-15T19:42:11.986Z,78.43
2018-12-15T19:44:42.150Z,78.99
2018-12-15T19:47:11.721Z,78.87
2018-12-15T19:49:41.613Z,78.88
2018-12-15T19:52:11.226Z,79.37
2018-12-15T19:54:41.047Z,79.14
2018-12-15T19:57:10.617Z,79.38
2018-12-15T19:59:40.193Z,79.91
2018-12-15T20:02:16.581Z,80.03
2018-12-15T20:04:46.900Z,80.00
2018-12-15T20:07:17.075Z,79.96
2018-12-15T20:09:46.760Z,80.43
2018-12-15T20:12:16.406Z,80.65
2018-12-15T20:14:46.443Z,80.72
2018-12-15T20:17:17.067Z,81.06
2018-12-15T20:19:47.047Z,81.66
2018-12-15T20:22:17.411Z,81.84
2018-12-15T20:24:47.828Z,81.93
2018-12-15T20:27:18.477Z,81.73
2018-12-15T20:29:48.293Z,85.10
2018-12-15T20:32:17.978Z,83.80
2018-12-15T20:34:47.633Z,83.32
2018-12-15T20:37:18.231Z,83.07
2018-12-15T20:39:47.827Z,82.78
2018-12-15T20:42:17.793Z,82.74
2018-12-15T20:44:48.088Z,82.67
2018-12-15T20:47:17.946Z,82.17
2018-12-15T20:49:47.772Z,82.42
2018-12-15T20:52:17.623Z,82.62
2018-12-15T20:54:47.747Z,82.87
2018-12-15T20:57:17.278Z,83.52
2018-12-15T20:59:46.987Z,83.13
2018-12-15T21:02:17.218Z,83.59
2018-12-15T21:04:48.646Z,83.25
2018-12-15T21:07:18.993Z,83.60
2018-12-15T21:09:48.821Z,83.99
2018-12-15T21:12:18.306Z,84.04
2018-12-15T21:14:47.798Z,83.83
2018-12-15T21:17:17.528Z,83.98
2018-12-15T21:19:48.067Z,84.06
2018-12-15T21:22:18.049Z,84.13
2018-12-15T21:24:48.023Z,83.28
2018-12-15T21:27:18.153Z,83.70
2018-12-15T21:29:47.708Z,83.83
2018-12-15T21:32:18.529Z,84.06
2018-12-15T21:34:48.199Z,83.87
2018-12-15T21:37:18.282Z,83.72
2018-12-15T21:39:48.311Z,84.38
2018-12-15T21:42:18.567Z,84.53
2018-12-15T21:44:48.557Z,84.87
2018-12-15T21:47:18.203Z,84.63
2018-12-15T21:49:48.334Z,84.55
2018-12-15T21:52:18.609Z,84.59
2018-12-15T21:54:48.609Z,85.09
2018-12-15T21:57:18.262Z,84.77
2018-12-15T21:59:48.004Z,84.50
2018-12-15T22:02:17.542Z,84.90
2018-12-15T22:04:47.582Z,84.50
2018-12-15T22:07:17.529Z,84.79
2018-12-15T22:09:47.913Z,85.11
2018-12-15T22:12:18.240Z,85.49
2018-12-15T22:14:48.093Z,85.36
2018-12-15T22:17:17.663Z,84.56
2018-12-15T22:19:48.597Z,84.57
2018-12-15T22:22:18.887Z,84.29
2018-12-15T22:24:49.117Z,84.46
2018-12-15T22:27:18.827Z,84.49
2018-12-15T22:29:48.352Z,84.75
2018-12-15T22:32:18.742Z,84.79
2018-12-15T22:34:48.803Z,84.14
2018-12-15T22:37:18.337Z,84.03
2018-12-15T22:39:48.279Z,84.08
2018-12-15T22:42:18.457Z,84.15
2018-12-15T22:44:48.293Z,84.65
2018-12-15T22:47:18.816Z,84.92
2018-12-15T22:49:48.253Z,84.97
2018-12-15T22:52:18.298Z,84.67
2018-12-15T22:54:47.967Z,84.87
2018-12-15T22:57:17.650Z,84.60
2018-12-15T22:59:47.161Z,84.43
2018-12-15T23:02:16.954Z,84.44
2018-12-15T23:04:46.606Z,84.21
2018-12-15T23:07:17.201Z,84.34
2018-12-15T23:09:46.976Z,84.45
2018-12-15T23:12:17.428Z,84.48
2018-12-15T23:14:47.062Z,85.05
2018-12-15T23:17:17.322Z,86.10
2018-12-15T23:19:46.986Z,85.14
2018-12-15T23:22:16.688Z,85.52
2018-12-15T23:24:46.182Z,85.74
2018-12-15T23:27:16.792Z,85.32
2018-12-15T23:29:46.557Z,84.07
2018-12-15T23:32:18.012Z,84.04
2018-12-15T23:34:47.699Z,85.26
2018-12-15T23:37:18.085Z,85.28
2018-12-15T23:39:47.912Z,85.55
2018-12-15T23:42:17.431Z,85.67
2018-12-15T23:44:47.383Z,84.67
2018-12-15T23:47:16.877Z,85.19
2018-12-15T23:49:46.803Z,85.64
2018-12-15T23:52:23.055Z,85.20
2018-12-15T23:54:49.231Z,85.24
2018-12-15T23:57:18.635Z,84.96
2018-12-15T23:59:48.758Z,85.01
